createdAt,value
2024-05-09T00:00:36.333Z,2.86
2024-05-09T00:03:30.949Z,2.88
2024-05-09T00:06:01.903Z,2.87
2024-05-09T00:08:33.254Z,2.93
2024-05-09T00:11:06.863Z,2.88
2024-05-09T00:13:38.074Z,2.89
2024-05-09T00:16:09.074Z,2.99
2024-05-09T00:18:40.280Z,2.98
2024-05-09T00:21:12.041Z,2.99
2024-05-09T00:23:44.264Z,3.04
2024-05-09T00:26:20.562Z,3.09
2024-05-09T00:28:51.651Z,3.11
2024-05-09T00:31:22.469Z,3.14
2024-05-09T00:33:53.562Z,3.15
2024-05-09T00:36:24.274Z,3.23
2024-05-09T00:38:55.447Z,3.26
2024-05-09T00:41:28.766Z,3.31
2024-05-09T00:44:00.101Z,3.35
2024-05-09T00:46:30.733Z,3.40
2024-05-09T00:49:01.884Z,3.46
2024-05-09T00:51:32.686Z,3.51
2024-05-09T00:54:05.582Z,3.57
2024-05-09T00:56:39.969Z,3.56
2024-05-09T00:59:11.438Z,3.59
2024-05-09T01:01:43.869Z,3.63
2024-05-09T01:04:15.142Z,3.63
2024-05-09T01:06:45.817Z,3.64
2024-05-09T01:09:16.961Z,3.60
2024-05-09T01:11:50.362Z,3.64
2024-05-09T01:14:21.806Z,3.69
2024-05-09T01:16:52.674Z,3.72
2024-05-09T01:19:28.748Z,3.75
2024-05-09T01:21:59.406Z,3.76
2024-05-09T01:24:33.171Z,3.73
2024-05-09T01:27:03.880Z,3.71
2024-05-09T01:29:35.149Z,3.74
2024-05-09T01:32:06.009Z,3.76
2024-05-09T01:34:37.199Z,3.77
2024-05-09T01:37:07.868Z,3.79
2024-05-09T01:39:41.645Z,3.76
2024-05-09T01:42:12.285Z,3.79
2024-05-09T01:44:46.967Z,3.80
2024-05-09T01:47:17.888Z,3.90
2024-05-09T01:49:49.130Z,3.96
2024-05-09T01:52:19.781Z,3.95
2024-05-09T01:54:53.551Z,3.94
2024-05-09T01:57:24.290Z,3.93
2024-05-09T01:59:56.525Z,3.96
2024-05-09T02:02:27.286Z,3.95
2024-05-09T02:04:58.545Z,3.98
2024-05-09T02:07:29.295Z,3.65
2024-05-09T02:10:06.570Z,4.00
2024-05-09T02:12:39.748Z,4.00
2024-05-09T02:15:11.304Z,4.03
2024-05-09T02:17:42.101Z,4.05
2024-05-09T02:20:22.474Z,4.05
2024-05-09T02:22:58.148Z,4.08
2024-05-09T02:25:33.074Z,4.12
2024-05-09T02:28:04.990Z,4.19
2024-05-09T02:30:40.460Z,4.27
2024-05-09T02:33:14.360Z,4.24
2024-05-09T02:35:46.293Z,4.20
2024-05-09T02:38:14.283Z,4.19
2024-05-09T02:40:48.261Z,4.25
2024-05-09T02:43:16.791Z,4.25
2024-05-09T02:45:48.073Z,4.27
2024-05-09T02:48:18.930Z,4.26
2024-05-09T02:50:47.581Z,4.29
2024-05-09T02:53:19.835Z,4.28
2024-05-09T02:55:51.126Z,4.26
2024-05-09T02:58:21.783Z,4.28
2024-05-09T03:00:50.253Z,4.30
2024-05-09T03:03:21.195Z,4.32
2024-05-09T03:05:49.807Z,4.31
2024-05-09T03:08:20.601Z,4.31
2024-05-09T03:10:51.828Z,4.34
2024-05-09T03:13:22.608Z,4.37
2024-05-09T03:15:51.173Z,4.39
2024-05-09T03:18:22.027Z,4.39
2024-05-09T03:20:50.788Z,4.03
2024-05-09T03:23:23.807Z,4.39
2024-05-09T03:25:55.080Z,4.39
2024-05-09T03:28:25.852Z,4.41
2024-05-09T03:30:54.455Z,4.44
2024-05-09T03:33:25.807Z,4.45
2024-05-09T03:35:54.701Z,4.49
2024-05-09T03:38:25.573Z,4.51
2024-05-09T03:41:00.127Z,4.55
2024-05-09T03:43:30.910Z,4.63
2024-05-09T03:46:02.196Z,4.63
2024-05-09T03:48:30.324Z,4.63
2024-05-09T03:51:01.475Z,4.67
2024-05-09T03:53:29.504Z,4.73
2024-05-09T03:56:03.862Z,4.72
2024-05-09T03:58:33.184Z,4.73
2024-05-09T04:01:04.296Z,4.76
2024-05-09T04:03:34.409Z,4.77
2024-05-09T04:06:05.707Z,4.81
2024-05-09T04:08:33.850Z,4.88
2024-05-09T04:11:07.911Z,4.95
2024-05-09T04:13:35.983Z,5.00
2024-05-09T04:16:07.525Z,5.06
2024-05-09T04:18:35.772Z,5.19
2024-05-09T04:21:07.453Z,5.29
2024-05-09T04:23:35.780Z,5.41
2024-05-09T04:26:09.925Z,5.43
2024-05-09T04:28:37.955Z,5.52
2024-05-09T04:31:09.150Z,5.60
2024-05-09T04:33:37.328Z,5.61
2024-05-09T04:36:09.535Z,5.63
2024-05-09T04:38:37.739Z,5.70
2024-05-09T04:41:11.713Z,5.78
2024-05-09T04:43:39.761Z,5.88
2024-05-09T04:46:10.899Z,6.03
2024-05-09T04:48:39.115Z,6.19
2024-05-09T04:51:10.508Z,6.28
2024-05-09T04:53:40.078Z,6.30
2024-05-09T04:56:14.403Z,6.43
2024-05-09T04:58:42.819Z,6.49
2024-05-09T05:01:17.360Z,6.69
2024-05-09T05:03:45.457Z,7.14
2024-05-09T05:06:16.826Z,7.52
2024-05-09T05:08:45.069Z,7.90
2024-05-09T05:11:19.066Z,8.20
2024-05-09T05:13:47.172Z,8.36
2024-05-09T05:16:19.338Z,8.35
2024-05-09T05:18:47.501Z,8.52
2024-05-09T05:21:18.822Z,8.66
2024-05-09T05:23:47.064Z,8.62
2024-05-09T05:26:21.213Z,8.74
2024-05-09T05:28:49.483Z,8.90
2024-05-09T05:31:20.701Z,8.75
2024-05-09T05:33:49.199Z,8.78
2024-05-09T05:36:20.531Z,9.01
2024-05-09T05:38:48.693Z,9.22
2024-05-09T05:41:22.643Z,9.33
2024-05-09T05:43:53.644Z,9.57
2024-05-09T05:46:22.082Z,9.95
2024-05-09T05:48:52.894Z,9.99
2024-05-09T05:51:21.621Z,10.48
2024-05-09T05:53:52.452Z,10.64
2024-05-09T05:56:23.703Z,10.49
2024-05-09T05:58:54.537Z,10.47
2024-05-09T06:01:23.081Z,10.79
2024-05-09T06:03:53.878Z,11.16
2024-05-09T06:06:22.765Z,11.27
2024-05-09T06:08:53.678Z,11.74
2024-05-09T06:11:24.983Z,11.89
2024-05-09T06:13:55.817Z,12.05
2024-05-09T06:16:24.280Z,12.26
2024-05-09T06:18:55.107Z,12.30
2024-05-09T06:21:23.795Z,12.45
2024-05-09T06:23:54.778Z,12.46
2024-05-09T06:26:26.051Z,12.50
2024-05-09T06:28:56.789Z,12.52
2024-05-09T06:31:25.615Z,12.36
2024-05-09T06:33:56.342Z,12.52
2024-05-09T06:36:24.952Z,12.43
2024-05-09T06:38:55.680Z,12.19
2024-05-09T06:41:29.492Z,12.19
2024-05-09T06:44:01.504Z,12.48
2024-05-09T06:46:30.048Z,12.54
2024-05-09T06:49:04.797Z,12.80
2024-05-09T06:51:35.979Z,12.85
2024-05-09T06:54:06.755Z,13.11
2024-05-09T06:56:38.851Z,13.45
2024-05-09T06:59:09.700Z,13.64
2024-05-09T07:01:38.355Z,13.68
2024-05-09T07:04:09.203Z,13.94
2024-05-09T07:06:37.957Z,13.89
2024-05-09T07:09:08.533Z,13.54
2024-05-09T07:11:40.788Z,13.32
2024-05-09T07:14:11.716Z,13.31
2024-05-09T07:16:40.336Z,13.94
2024-05-09T07:19:12.182Z,14.50
2024-05-09T07:21:40.649Z,14.46
2024-05-09T07:24:11.249Z,14.43
2024-05-09T07:26:42.433Z,13.91
2024-05-09T07:29:13.145Z,13.59
2024-05-09T07:31:41.751Z,13.95
2024-05-09T07:34:13.583Z,13.86
2024-05-09T07:36:42.469Z,14.33
2024-05-09T07:39:13.954Z,14.44
2024-05-09T07:41:45.130Z,14.50
2024-05-09T07:44:15.911Z,14.71
2024-05-09T07:47:48.189Z,14.88
2024-05-09T07:54:40.733Z,14.97
2024-05-09T07:57:12.008Z,14.80
2024-05-09T07:59:42.737Z,14.61
2024-05-09T08:02:12.345Z,15.18
2024-05-09T08:04:43.129Z,15.22
2024-05-09T08:07:11.643Z,15.08
2024-05-09T08:09:42.477Z,15.09
2024-05-09T08:12:15.165Z,15.04
2024-05-09T08:14:45.879Z,14.88
2024-05-09T08:17:14.528Z,14.48
2024-05-09T08:19:45.392Z,14.27
2024-05-09T08:22:14.494Z,14.30
2024-05-09T08:24:46.836Z,13.94
2024-05-09T08:27:18.057Z,13.83
2024-05-09T08:29:49.005Z,13.87
2024-05-09T08:32:46.799Z,13.69
2024-05-09T08:35:17.586Z,13.91
2024-05-09T08:37:47.691Z,14.23
2024-05-09T08:40:24.241Z,14.69
2024-05-09T08:43:02.810Z,14.77
2024-05-09T08:45:35.707Z,14.56
2024-05-09T08:48:08.026Z,14.85
2024-05-09T08:50:42.713Z,15.28
2024-05-09T08:53:11.302Z,15.72
2024-05-09T08:55:43.971Z,16.23
2024-05-09T08:58:18.185Z,15.84
2024-05-09T09:00:49.838Z,15.80
2024-05-09T09:03:19.868Z,15.85
2024-05-09T09:05:55.772Z,15.72
2024-05-09T09:08:25.914Z,15.70
2024-05-09T09:10:57.370Z,15.82
2024-05-09T09:13:29.034Z,16.46
2024-05-09T09:16:01.262Z,16.35
2024-05-09T09:18:30.702Z,16.76
2024-05-09T09:21:02.482Z,16.48
2024-05-09T09:23:31.028Z,16.87
2024-05-09T09:26:02.361Z,16.84
2024-05-09T09:28:36.301Z,16.19
2024-05-09T09:31:07.989Z,16.36
2024-05-09T09:33:41.751Z,17.06
2024-05-09T09:36:14.443Z,16.79
2024-05-09T09:38:43.859Z,17.25
2024-05-09T09:41:15.857Z,17.20
2024-05-09T09:43:47.868Z,16.57
2024-05-09T09:46:18.923Z,16.77
2024-05-09T09:48:48.213Z,16.50
2024-05-09T09:51:19.206Z,16.35
2024-05-09T09:53:51.840Z,16.65
2024-05-09T09:56:20.461Z,16.86
2024-05-09T09:58:55.869Z,16.84
2024-05-09T10:01:24.083Z,16.93
2024-05-09T10:03:55.972Z,17.26
2024-05-09T10:06:24.744Z,16.86
2024-05-09T10:08:56.647Z,16.92
2024-05-09T10:11:25.953Z,16.94
2024-05-09T10:14:00.205Z,17.10
2024-05-09T10:16:30.819Z,17.18
2024-05-09T10:19:02.271Z,17.17
2024-05-09T10:21:30.643Z,17.25
2024-05-09T10:24:02.531Z,17.19
2024-05-09T10:26:32.075Z,16.50
2024-05-09T10:29:13.348Z,16.64
2024-05-09T10:31:41.887Z,16.42
2024-05-09T10:34:19.772Z,16.62
2024-05-09T10:36:51.804Z,16.97
2024-05-09T10:39:23.305Z,17.28
2024-05-09T10:41:51.264Z,17.49
2024-05-09T10:44:24.958Z,17.35
2024-05-09T10:46:54.950Z,17.45
2024-05-09T10:49:26.352Z,17.40
2024-05-09T10:51:55.435Z,17.44
2024-05-09T10:54:26.599Z,17.60
2024-05-09T10:56:57.854Z,17.67
2024-05-09T10:59:39.798Z,17.99
2024-05-09T11:02:08.106Z,18.04
2024-05-09T11:04:41.009Z,17.73
2024-05-09T11:07:10.580Z,17.79
2024-05-09T11:09:42.396Z,17.92
2024-05-09T11:12:10.966Z,17.66
2024-05-09T11:14:54.929Z,17.96
2024-05-09T11:17:23.259Z,18.28
2024-05-09T11:19:54.520Z,17.91
2024-05-09T11:22:25.300Z,17.91
2024-05-09T11:24:56.921Z,18.30
2024-05-09T11:27:25.252Z,18.49
2024-05-09T11:29:59.516Z,18.42
2024-05-09T11:32:28.870Z,18.37
2024-05-09T11:35:00.197Z,18.28
2024-05-09T11:37:31.839Z,18.13
2024-05-09T11:40:06.799Z,18.50
2024-05-09T11:42:35.123Z,18.49
2024-05-09T11:45:09.300Z,18.58
2024-05-09T11:47:38.874Z,18.76
2024-05-09T11:50:16.019Z,18.76
2024-05-09T11:52:50.000Z,18.67
2024-05-09T11:55:26.725Z,18.56
2024-05-09T11:57:56.179Z,18.63
2024-05-09T12:00:36.586Z,18.82
2024-05-09T12:03:06.401Z,18.98
2024-05-09T12:05:37.797Z,18.51
2024-05-09T12:08:06.375Z,18.59
2024-05-09T12:10:37.730Z,18.27
2024-05-09T12:13:07.081Z,18.28
2024-05-09T12:15:42.671Z,18.23
2024-05-09T12:18:10.991Z,18.23
2024-05-09T12:20:42.249Z,18.21
2024-05-09T12:23:10.771Z,18.34
2024-05-09T12:25:42.056Z,18.87
2024-05-09T12:28:10.167Z,19.03
2024-05-09T12:30:43.949Z,19.29
2024-05-09T12:33:13.250Z,19.23
2024-05-09T12:35:46.750Z,19.61
2024-05-09T12:38:16.330Z,19.37
2024-05-09T12:40:47.554Z,19.44
2024-05-09T12:43:17.422Z,19.34
2024-05-09T12:45:51.419Z,18.68
2024-05-09T12:48:19.670Z,18.66
2024-05-09T12:50:51.818Z,18.19
2024-05-09T12:53:19.926Z,18.10
2024-05-09T12:55:56.863Z,18.55
2024-05-09T12:58:28.238Z,18.61
2024-05-09T13:01:02.110Z,18.58
2024-05-09T13:03:30.501Z,18.69
2024-05-09T13:06:01.747Z,18.40
2024-05-09T13:08:29.873Z,18.12
2024-05-09T13:11:01.081Z,18.21
2024-05-09T13:13:29.414Z,18.27
2024-05-09T13:16:03.418Z,18.05
2024-05-09T13:18:33.457Z,18.09
2024-05-09T13:21:04.694Z,18.04
2024-05-09T13:23:32.763Z,17.81
2024-05-09T13:26:03.842Z,17.94
2024-05-09T13:28:33.640Z,17.64
2024-05-09T13:31:07.559Z,17.40
2024-05-09T13:33:35.806Z,17.42
2024-05-09T13:36:07.350Z,17.66
2024-05-09T13:38:35.382Z,18.06
2024-05-09T13:41:06.744Z,18.32
2024-05-09T13:43:35.031Z,18.24
2024-05-09T13:46:08.913Z,18.10
2024-05-09T13:48:37.230Z,17.99
2024-05-09T13:51:08.668Z,17.95
2024-05-09T13:53:36.819Z,17.77
2024-05-09T13:56:08.908Z,17.80
2024-05-09T13:58:37.059Z,17.86
2024-05-09T14:01:11.099Z,17.86
2024-05-09T14:03:39.818Z,17.69
2024-05-09T14:06:13.189Z,17.74
2024-05-09T14:08:41.606Z,17.56
2024-05-09T14:11:12.871Z,17.41
2024-05-09T14:13:41.152Z,17.41
2024-05-09T14:16:15.210Z,17.54
2024-05-09T14:18:43.383Z,17.84
2024-05-09T14:21:14.466Z,17.82
2024-05-09T14:23:42.378Z,17.74
2024-05-09T14:26:13.978Z,17.62
2024-05-09T14:28:42.029Z,17.43
2024-05-09T14:31:15.811Z,17.43
2024-05-09T14:33:43.919Z,17.29
2024-05-09T14:36:15.275Z,17.18
2024-05-09T14:38:43.405Z,17.18
2024-05-09T14:41:14.706Z,17.28
2024-05-09T14:43:42.803Z,17.26
2024-05-09T14:46:16.785Z,17.35
2024-05-09T14:48:45.273Z,17.22
2024-05-09T14:51:16.615Z,17.15
2024-05-09T14:53:44.818Z,17.24
2024-05-09T14:56:15.892Z,17.27
2024-05-09T14:58:43.889Z,17.11
2024-05-09T15:01:20.569Z,16.99
2024-05-09T15:03:48.747Z,16.81
2024-05-09T15:06:20.090Z,16.68
2024-05-09T15:08:53.812Z,16.74
2024-05-09T15:11:25.067Z,16.71
2024-05-09T15:13:53.205Z,16.61
2024-05-09T15:16:27.687Z,16.52
2024-05-09T15:18:56.025Z,16.51
2024-05-09T15:21:27.331Z,16.46
2024-05-09T15:23:55.409Z,16.43
2024-05-09T15:26:26.653Z,16.36
2024-05-09T15:28:54.941Z,16.35
2024-05-09T15:31:28.881Z,16.44
2024-05-09T15:33:57.237Z,16.29
2024-05-09T15:36:28.634Z,16.32
2024-05-09T15:38:56.713Z,16.30
2024-05-09T15:41:28.011Z,16.21
2024-05-09T15:43:56.107Z,16.18
2024-05-09T15:46:29.790Z,16.21
2024-05-09T15:48:58.061Z,16.14
2024-05-09T15:51:29.422Z,16.06
2024-05-09T15:53:57.487Z,15.91
2024-05-09T15:56:28.686Z,15.88
2024-05-09T15:58:56.974Z,15.85
2024-05-09T16:01:31.752Z,15.71
2024-05-09T16:04:00.072Z,15.70
2024-05-09T16:06:31.496Z,15.82
2024-05-09T16:08:59.913Z,15.58
2024-05-09T16:11:31.205Z,15.59
2024-05-09T16:13:59.599Z,15.66
2024-05-09T16:16:33.601Z,15.49
2024-05-09T16:19:01.908Z,15.44
2024-05-09T16:21:33.136Z,15.42
2024-05-09T16:24:01.167Z,15.45
2024-05-09T16:26:32.666Z,15.53
2024-05-09T16:29:01.063Z,15.84
2024-05-09T16:31:34.836Z,15.94
2024-05-09T16:34:03.444Z,15.75
2024-05-09T16:36:34.921Z,15.65
2024-05-09T16:39:03.071Z,15.49
2024-05-09T16:41:34.320Z,15.37
2024-05-09T16:44:03.241Z,15.23
2024-05-09T16:46:37.302Z,15.23
2024-05-09T16:49:05.823Z,15.16
2024-05-09T16:51:37.119Z,15.18
2024-05-09T16:54:05.187Z,15.09
2024-05-09T16:56:36.364Z,15.02
2024-05-09T16:59:04.431Z,14.82
2024-05-09T17:01:38.208Z,14.76
2024-05-09T17:04:06.564Z,14.71
2024-05-09T17:06:38.004Z,14.64
2024-05-09T17:09:11.581Z,14.67
2024-05-09T17:11:43.508Z,14.68
2024-05-09T17:14:14.259Z,14.58
2024-05-09T17:16:48.061Z,14.42
2024-05-09T17:19:16.194Z,14.37
2024-05-09T17:21:47.221Z,14.49
2024-05-09T17:24:15.365Z,14.49
2024-05-09T17:26:46.785Z,14.50
2024-05-09T17:29:14.846Z,14.46
2024-05-09T17:31:48.757Z,14.38
2024-05-09T17:34:17.105Z,14.45
2024-05-09T17:36:48.776Z,14.47
2024-05-09T17:39:16.886Z,14.41
2024-05-09T17:41:48.183Z,14.43
2024-05-09T17:44:16.526Z,14.34
2024-05-09T17:46:50.973Z,14.36
2024-05-09T17:49:19.706Z,14.31
2024-05-09T17:51:54.129Z,14.05
2024-05-09T17:54:22.257Z,13.97
2024-05-09T17:56:53.611Z,14.00
2024-05-09T17:59:21.691Z,13.99
2024-05-09T18:01:55.701Z,13.95
2024-05-09T18:04:23.867Z,13.69
2024-05-09T18:06:55.188Z,13.55
2024-05-09T18:09:23.276Z,13.38
2024-05-09T18:11:54.595Z,13.20
2024-05-09T18:14:23.321Z,13.04
2024-05-09T18:16:56.998Z,13.01
2024-05-09T18:19:25.339Z,12.79
2024-05-09T18:21:56.773Z,12.53
2024-05-09T18:24:24.939Z,12.53
2024-05-09T18:26:56.080Z,12.52
2024-05-09T18:29:24.077Z,12.50
2024-05-09T18:31:57.849Z,12.42
2024-05-09T18:34:26.126Z,11.96
2024-05-09T18:36:57.453Z,11.92
2024-05-09T18:39:25.650Z,11.85
2024-05-09T18:41:56.957Z,11.64
2024-05-09T18:44:27.540Z,11.41
2024-05-09T18:47:01.280Z,11.38
2024-05-09T18:49:29.661Z,11.32
2024-05-09T18:52:00.999Z,11.26
2024-05-09T18:54:29.013Z,11.10
2024-05-09T18:57:00.118Z,10.94
2024-05-09T18:59:28.185Z,10.71
2024-05-09T19:02:02.138Z,10.63
2024-05-09T19:04:30.327Z,10.64
2024-05-09T19:07:04.310Z,10.30
2024-05-09T19:09:32.500Z,10.64
2024-05-09T19:12:06.545Z,10.72
2024-05-09T19:14:34.608Z,10.68
2024-05-09T19:17:08.308Z,10.62
2024-05-09T19:19:36.407Z,10.73
2024-05-09T19:22:09.057Z,10.62
2024-05-09T19:24:38.258Z,10.66
2024-05-09T19:27:09.377Z,10.67
2024-05-09T19:29:37.475Z,10.52
2024-05-09T19:32:11.534Z,10.37
2024-05-09T19:34:39.645Z,10.25
2024-05-09T19:37:10.692Z,10.10
2024-05-09T19:39:38.904Z,9.90
2024-05-09T19:42:09.980Z,9.87
2024-05-09T19:44:37.993Z,9.81
2024-05-09T19:47:11.965Z,9.78
2024-05-09T19:49:40.086Z,9.78
2024-05-09T19:52:11.364Z,9.78
2024-05-09T19:54:39.601Z,9.83
2024-05-09T19:57:10.785Z,9.86
2024-05-09T19:59:38.776Z,9.88
2024-05-09T20:02:13.237Z,9.81
2024-05-09T20:04:45.114Z,9.77
2024-05-09T20:07:16.560Z,9.71
2024-05-09T20:09:44.720Z,9.76
2024-05-09T20:12:15.853Z,9.75
2024-05-09T20:14:43.982Z,9.78
2024-05-09T20:17:17.728Z,9.76
2024-05-09T20:19:46.790Z,9.75
2024-05-09T20:22:18.035Z,9.77
2024-05-09T20:24:46.349Z,9.62
2024-05-09T20:27:17.947Z,9.43
2024-05-09T20:29:46.279Z,9.01
2024-05-09T20:32:20.038Z,9.20
2024-05-09T20:34:50.602Z,9.11
2024-05-09T20:37:22.012Z,8.91
2024-05-09T20:39:50.129Z,8.88
2024-05-09T20:42:21.293Z,8.84
2024-05-09T20:44:49.484Z,8.79
2024-05-09T20:47:24.306Z,8.71
2024-05-09T20:49:52.349Z,8.61
2024-05-09T20:52:24.255Z,8.54
2024-05-09T20:54:52.335Z,8.47
2024-05-09T20:57:23.411Z,8.43
2024-05-09T20:59:51.440Z,8.45
2024-05-09T21:02:25.418Z,7.94
2024-05-09T21:04:53.748Z,8.22
2024-05-09T21:07:24.863Z,8.07
2024-05-09T21:09:52.915Z,8.08
2024-05-09T21:12:24.024Z,8.01
2024-05-09T21:14:52.112Z,8.07
2024-05-09T21:17:25.914Z,8.05
2024-05-09T21:19:53.922Z,7.95
2024-05-09T21:22:25.070Z,8.04
2024-05-09T21:24:53.158Z,7.93
2024-05-09T21:27:24.705Z,7.93
2024-05-09T21:29:52.806Z,7.75
2024-05-09T21:32:26.543Z,7.94
2024-05-09T21:34:57.225Z,7.83
2024-05-09T21:37:25.736Z,7.80
2024-05-09T21:39:56.501Z,7.79
2024-05-09T21:42:25.044Z,7.82
2024-05-09T21:44:55.779Z,7.83
2024-05-09T21:47:26.972Z,7.85
2024-05-09T21:49:57.755Z,7.79
2024-05-09T21:52:26.970Z,7.74
2024-05-09T21:54:57.792Z,7.84
2024-05-09T21:57:26.387Z,7.83
2024-05-09T21:59:57.033Z,7.73
2024-05-09T22:02:28.355Z,7.66
2024-05-09T22:05:01.813Z,7.72
2024-05-09T22:07:30.443Z,7.71
2024-05-09T22:10:01.200Z,7.71
2024-05-09T22:12:30.000Z,7.45
2024-05-09T22:15:00.861Z,7.74
2024-05-09T22:17:31.989Z,7.74
2024-05-09T22:20:05.784Z,7.74
2024-05-09T22:22:35.848Z,7.74
2024-05-09T22:25:06.856Z,7.74
2024-05-09T22:27:35.372Z,7.77
2024-05-09T22:30:09.215Z,7.81
2024-05-09T22:32:43.157Z,7.87
2024-05-09T22:35:13.867Z,7.88
2024-05-09T22:37:42.441Z,7.95
2024-05-09T22:40:20.704Z,7.97
2024-05-09T22:42:57.048Z,7.97
2024-05-09T22:45:27.758Z,7.97
2024-05-09T22:47:59.219Z,7.97
2024-05-09T22:50:33.287Z,8.00
2024-05-09T22:53:02.413Z,8.06
2024-05-09T22:55:33.143Z,8.06
2024-05-09T22:58:01.725Z,8.13
2024-05-09T23:00:33.190Z,8.19
2024-05-09T23:03:04.902Z,8.22
2024-05-09T23:05:35.742Z,8.19
2024-05-09T23:08:04.546Z,8.25
2024-05-09T23:10:37.691Z,8.31
2024-05-09T23:13:07.942Z,8.38
2024-05-09T23:15:39.768Z,8.41
2024-05-09T23:18:11.398Z,8.45
2024-05-09T23:20:42.137Z,8.52
2024-05-09T23:23:11.876Z,8.55
2024-05-09T23:25:43.812Z,8.57
2024-05-09T23:28:12.709Z,8.64
2024-05-09T23:30:43.709Z,8.71
2024-05-09T23:33:15.063Z,8.79
2024-05-09T23:35:46.412Z,8.88
2024-05-09T23:38:14.850Z,9.00
2024-05-09T23:40:45.806Z,9.06
2024-05-09T23:43:15.052Z,9.14
2024-05-09T23:45:46.114Z,9.23
2024-05-09T23:48:17.294Z,9.27
2024-05-09T23:50:48.083Z,9.33
2024-05-09T23:53:16.557Z,9.41
2024-05-09T23:55:47.193Z,9.46
2024-05-09T23:58:15.819Z,9.50
